Time;durP1;ratioP1;P1;durP2;ratioP2;P2;SDS_P1;SDS_P2;PMS_P1;PMS_P2;Temp;Humidity;BMP_temperature;BMP_pressure;BME280_temperature;BME280_humidity;BME280_pressure;Samples;Min_cycle;Max_cycle;Signal;HPM_P1;HPM_P2
2023/12/30 00:04:31;;;;;;;19.17;3.67;;;9.40;1.00;;;;;;2614394;54;20409;-82
2023/12/30 00:10:19;;;;;;;7.77;2.80;;;9.40;1.00;;;;;;2614106;54;20788;-82
2023/12/30 00:16:07;;;;;;;13.53;5.63;;;9.40;1.00;;;;;;2614927;54;20871;-81
2023/12/30 00:21:54;;;;;;;5.63;2.43;;;9.50;1.00;;;;;;2614585;54;20204;-82
2023/12/30 00:27:42;;;;;;;4.70;1.80;;;9.40;1.00;;;;;;2614132;54;20140;-80
2023/12/30 00:33:30;;;;;;;8.40;2.13;;;9.40;1.00;;;;;;2613444;54;20185;-82
2023/12/30 00:36:51;;;;;;;12.20;3.30;;;9.40;1.00;;;;;;2613333;47;20964;-80
2023/12/30 00:42:39;;;;;;;5.97;2.07;;;9.20;1.00;;;;;;2614614;54;20410;-81
2023/12/30 00:48:27;;;;;;;7.57;3.37;;;9.30;1.00;;;;;;2614260;54;20394;-73
2023/12/30 00:54:16;;;;;;;4.87;2.50;;;9.20;1.00;;;;;;2614159;54;20470;-75
2023/12/30 01:00:05;;;;;;;20.70;3.43;;;9.20;1.00;;;;;;2613784;54;20392;-75
2023/12/30 01:05:53;;;;;;;12.43;3.80;;;9.20;1.00;;;;;;2614060;54;20393;-74
2023/12/30 01:11:42;;;;;;;8.63;3.00;;;9.30;1.00;;;;;;2614422;54;20778;-75
2023/12/30 01:17:31;;;;;;;15.53;4.27;;;9.20;1.00;;;;;;2613795;54;20394;-72
2023/12/30 01:23:19;;;;;;;10.73;3.30;;;9.10;1.00;;;;;;2614462;39;20773;-73
2023/12/30 01:29:07;;;;;;;9.70;2.43;;;9.10;1.00;;;;;;2613698;54;20144;-74
2023/12/30 01:32:23;;;;;;;10.03;2.30;;;9.10;1.00;;;;;;2613962;54;20402;-75
2023/12/30 01:34:49;;;;;;;3.97;1.77;;;9.00;1.00;;;;;;2614092;31;20666;-79
2023/12/30 01:40:36;;;;;;;11.70;3.50;;;8.90;1.00;;;;;;2614186;54;20152;-76
2023/12/30 01:46:24;;;;;;;5.00;2.50;;;8.70;1.00;;;;;;2614492;39;20229;-80
2023/12/30 01:52:12;;;;;;;4.87;1.80;;;8.50;1.00;;;;;;2613663;54;20399;-81
2023/12/30 01:55:15;;;;;;;4.60;2.40;;;8.70;1.00;;;;;;2613696;31;20842;-81
2023/12/30 01:57:44;;;;;;;5.80;1.80;;;8.80;1.00;;;;;;2613174;47;20398;-81
2023/12/30 02:03:33;;;;;;;5.07;2.30;;;8.70;1.00;;;;;;2614241;46;20429;-79
2023/12/30 02:09:20;;;;;;;3.10;2.43;;;8.40;1.00;;;;;;2614246;54;20390;-78
2023/12/30 02:15:12;;;;;;;9.87;3.27;;;8.50;1.00;;;;;;2613892;39;20539;-82
2023/12/30 02:20:59;;;;;;;9.70;3.77;;;8.50;1.00;;;;;;2613981;54;20408;-81
2023/12/30 02:26:47;;;;;;;7.53;2.90;;;8.60;1.00;;;;;;2614155;54;20739;-82
2023/12/30 02:36:53;;;;;;;14.97;2.40;;;8.50;1.00;;;;;;2613659;54;20386;-80
2023/12/30 02:42:41;;;;;;;3.97;2.00;;;8.50;1.00;;;;;;2613884;54;20449;-81
2023/12/30 02:48:28;;;;;;;9.43;4.07;;;8.70;1.00;;;;;;2614178;54;20284;-80
2023/12/30 02:54:18;;;;;;;7.10;2.93;;;8.40;1.00;;;;;;2613246;54;20129;-78
2023/12/30 03:00:06;;;;;;;6.57;2.70;;;8.20;1.00;;;;;;2613910;39;20748;-79
2023/12/30 03:05:54;;;;;;;5.03;2.73;;;8.40;1.00;;;;;;2613507;54;20445;-82
2023/12/30 03:11:42;;;;;;;5.20;2.40;;;8.30;1.00;;;;;;2614497;39;20519;-81
2023/12/30 03:17:30;;;;;;;7.13;3.10;;;8.40;1.00;;;;;;2613628;54;20492;-82
2023/12/30 03:23:18;;;;;;;4.77;2.30;;;8.30;1.00;;;;;;2614173;39;20553;-77
2023/12/30 03:29:05;;;;;;;10.83;3.40;;;8.40;1.00;;;;;;2613328;54;20168;-78
2023/12/30 03:35:07;;;;;;;14.10;2.83;;;8.20;1.00;;;;;;2612111;54;20155;-77
2023/12/30 03:40:57;;;;;;;10.70;4.13;;;8.40;1.00;;;;;;2612519;54;20555;-81
2023/12/30 03:46:44;;;;;;;7.00;3.40;;;8.30;1.00;;;;;;2613341;39;20784;-83
2023/12/30 03:52:32;;;;;;;13.80;3.30;;;8.30;1.00;;;;;;2613352;54;20155;-82
2023/12/30 03:58:19;;;;;;;5.83;2.43;;;8.50;1.00;;;;;;2613300;54;20729;-75
2023/12/30 04:04:06;;;;;;;2.80;1.93;;;8.40;1.00;;;;;;2613023;54;20147;-76
2023/12/30 04:09:53;;;;;;;9.00;2.80;;;8.60;1.00;;;;;;2612970;54;20322;-75
2023/12/30 04:15:40;;;;;;;5.03;2.67;;;8.50;1.00;;;;;;2615419;39;20538;-74
2023/12/30 04:21:29;;;;;;;8.37;2.33;;;8.60;1.00;;;;;;2614492;54;20128;-75
2023/12/30 04:27:17;;;;;;;7.97;2.97;;;8.70;1.00;;;;;;2614053;54;20441;-78
2023/12/30 04:36:54;;;;;;;6.70;3.07;;;8.60;1.00;;;;;;2614081;54;20985;-77
2023/12/30 04:42:42;;;;;;;8.83;2.97;;;8.40;1.00;;;;;;2614650;54;20375;-74
2023/12/30 04:48:29;;;;;;;10.93;3.47;;;8.40;1.00;;;;;;2614549;54;20131;-81
2023/12/30 04:54:17;;;;;;;14.80;2.70;;;8.30;1.00;;;;;;2614110;54;20173;-73
2023/12/30 05:00:06;;;;;;;9.00;2.73;;;8.10;1.00;;;;;;2614052;54;20697;-74
2023/12/30 05:05:55;;;;;;;8.63;2.90;;;8.20;1.00;;;;;;2614099;54;21033;-72
2023/12/30 05:11:44;;;;;;;6.80;2.70;;;8.00;1.00;;;;;;2614780;39;20865;-74
2023/12/30 05:17:32;;;;;;;10.40;3.40;;;8.00;1.00;;;;;;2613914;54;20943;-75
2023/12/30 05:23:19;;;;;;;9.70;3.03;;;8.10;1.00;;;;;;2614235;54;20509;-76
2023/12/30 05:29:07;;;;;;;10.43;2.90;;;8.10;1.00;;;;;;2614705;54;20654;-75
2023/12/30 05:32:23;;;;;;;10.63;2.77;;;8.00;1.00;;;;;;2614525;54;20406;-75
2023/12/30 05:34:49;;;;;;;3.37;2.23;;;8.10;1.00;;;;;;2614378;39;20563;-74
2023/12/30 05:40:36;;;;;;;12.17;3.40;;;8.10;1.00;;;;;;2613987;39;20539;-77
2023/12/30 05:46:24;;;;;;;5.33;2.30;;;8.20;1.00;;;;;;2614058;54;20634;-74
2023/12/30 05:52:12;;;;;;;15.27;3.10;;;8.20;1.00;;;;;;2613353;54;20127;-75
2023/12/30 05:57:59;;;;;;;6.10;3.80;;;8.00;1.00;;;;;;2614577;39;20523;-74
2023/12/30 06:03:47;;;;;;;13.90;3.83;;;8.10;1.00;;;;;;2613910;54;20156;-73
2023/12/30 06:09:35;;;;;;;8.57;2.37;;;8.00;1.00;;;;;;2613465;54;20151;-74
2023/12/30 06:15:22;;;;;;;10.10;4.00;;;7.90;1.00;;;;;;2614433;39;20623;-75
2023/12/30 06:21:12;;;;;;;9.07;3.20;;;7.90;1.00;;;;;;2613592;54;20677;-74
2023/12/30 06:26:59;;;;;;;10.03;2.37;;;7.90;1.00;;;;;;2613972;54;20393;-73
2023/12/30 06:42:44;;;;;;;4.93;2.50;;;8.00;1.00;;;;;;2613522;54;20995;-73
2023/12/30 06:48:32;;;;;;;11.70;4.23;;;8.00;1.00;;;;;;2614017;54;20394;-73
2023/12/30 06:54:21;;;;;;;12.50;5.07;;;7.90;1.00;;;;;;2613904;39;20445;-74
2023/12/30 07:00:09;;;;;;;5.80;3.30;;;7.80;1.00;;;;;;2613183;54;20422;-74
2023/12/30 07:05:58;;;;;;;10.23;3.63;;;7.90;1.00;;;;;;2613329;54;20469;-76
2023/12/30 07:11:46;;;;;;;10.43;4.27;;;7.70;1.00;;;;;;2613531;54;20416;-74
2023/12/30 07:17:34;;;;;;;6.80;2.73;;;7.70;1.00;;;;;;2614287;54;20133;-72
2023/12/30 07:23:21;;;;;;;12.17;4.63;;;7.90;1.00;;;;;;2614065;54;20159;-73
2023/12/30 07:29:09;;;;;;;4.30;3.50;;;7.80;1.00;;;;;;2614873;54;20136;-79
2023/12/30 07:32:25;;;;;;;8.97;3.70;;;7.80;1.00;;;;;;2614514;46;20953;-78
2023/12/30 07:34:51;;;;;;;15.23;3.97;;;7.80;1.00;;;;;;2613994;54;20152;-78
2023/12/30 07:40:39;;;;;;;6.30;2.87;;;7.80;1.00;;;;;;2615207;54;20377;-76
2023/12/30 07:46:26;;;;;;;7.03;4.10;;;7.90;1.00;;;;;;2614208;54;20401;-78
2023/12/30 07:52:14;;;;;;;7.73;2.80;;;7.90;1.00;;;;;;2614586;54;20127;-77
2023/12/30 07:58:02;;;;;;;8.30;3.83;;;8.00;1.00;;;;;;2614607;54;20117;-76
2023/12/30 08:03:50;;;;;;;8.33;3.03;;;8.10;1.00;;;;;;2614734;54;20240;-77
2023/12/30 08:09:37;;;;;;;8.40;3.23;;;8.20;1.00;;;;;;2614594;54;20169;-78
2023/12/30 08:15:27;;;;;;;5.70;3.73;;;8.20;1.00;;;;;;2614758;54;20204;-78
2023/12/30 08:21:15;;;;;;;6.40;2.93;;;8.30;1.00;;;;;;2614155;54;20362;-78
2023/12/30 08:27:03;;;;;;;8.57;3.90;;;8.30;1.00;;;;;;2614960;54;20140;-78
2023/12/30 08:37:00;;;;;;;11.30;2.57;;;8.40;1.00;;;;;;2614518;54;20983;-79
2023/12/30 08:40:08;;;;;;;8.10;3.50;;;8.40;1.00;;;;;;2614708;54;20426;-78
2023/12/30 08:42:35;;;;;;;6.33;2.70;;;8.40;1.00;;;;;;2615119;54;20908;-78
2023/12/30 08:48:23;;;;;;;11.33;2.47;;;8.50;1.00;;;;;;2614504;54;20457;-78
2023/12/30 08:54:11;;;;;;;8.40;3.13;;;8.50;1.00;;;;;;2614603;54;20141;-78
2023/12/30 08:59:58;;;;;;;9.63;3.77;;;8.50;1.00;;;;;;2614827;47;21073;-74
2023/12/30 09:05:46;;;;;;;3.83;2.10;;;8.50;1.00;;;;;;2615010;54;20127;-79
2023/12/30 09:11:37;;;;;;;6.07;2.57;;;8.60;1.00;;;;;;2614878;54;20650;-78
2023/12/30 09:17:25;;;;;;;6.40;2.73;;;8.70;1.00;;;;;;2615682;39;20870;-79
2023/12/30 09:23:13;;;;;;;10.40;3.40;;;8.70;1.00;;;;;;2615608;39;20587;-78
2023/12/30 09:29:01;;;;;;;3.67;2.50;;;8.70;1.00;;;;;;2614644;54;20126;-77
2023/12/30 09:38:14;;;;;;;13.23;3.20;;;8.70;1.00;;;;;;2614426;54;20405;-78
2023/12/30 09:44:03;;;;;;;6.80;2.70;;;8.80;1.00;;;;;;2614896;54;20358;-78
2023/12/30 09:49:52;;;;;;;10.73;3.10;;;8.90;1.00;;;;;;2614172;54;20996;-78
2023/12/30 09:55:40;;;;;;;9.77;3.23;;;8.90;1.00;;;;;;2614851;54;20390;-73
2023/12/30 10:01:28;;;;;;;8.97;3.63;;;9.00;1.00;;;;;;2613846;54;20152;-74
2023/12/30 10:07:16;;;;;;;21.33;3.97;;;9.00;1.00;;;;;;2613820;54;20967;-74
2023/12/30 10:13:04;;;;;;;8.50;2.60;;;9.10;1.00;;;;;;2613965;54;20966;-73
2023/12/30 10:18:52;;;;;;;7.33;3.90;;;9.20;1.00;;;;;;2614069;54;20138;-78
2023/12/30 10:24:40;;;;;;;19.50;4.10;;;9.10;1.00;;;;;;2614825;54;20511;-77
2023/12/30 10:30:31;;;;;;;11.80;3.20;;;9.20;1.00;;;;;;2614277;54;20189;-79
2023/12/30 10:33:44;;;;;;;4.70;3.17;;;9.30;1.00;;;;;;2614436;54;20422;-78
2023/12/30 10:36:11;;;;;;;4.67;2.77;;;9.30;1.00;;;;;;2613504;54;20985;-75
2023/12/30 10:41:58;;;;;;;9.20;3.73;;;9.30;1.00;;;;;;2614467;47;20420;-76
2023/12/30 10:47:50;;;;;;;6.80;2.00;;;9.40;1.00;;;;;;2615176;54;20592;-79
2023/12/30 10:53:44;;;;;;;10.23;4.20;;;9.50;1.00;;;;;;2614719;54;20374;-78
2023/12/30 10:59:32;;;;;;;9.13;3.50;;;9.50;1.00;;;;;;2613646;54;20371;-77
2023/12/30 11:17:59;;;;;;;10.03;4.07;;;9.70;1.00;;;;;;2614555;54;20422;-77
2023/12/30 11:33:44;;;;;;;5.53;3.27;;;9.80;1.00;;;;;;2614536;39;20800;-76
2023/12/30 11:36:09;;;;;;;14.80;4.30;;;9.90;1.00;;;;;;2613002;54;20909;-76
2023/12/30 11:41:58;;;;;;;14.50;4.13;;;9.80;1.00;;;;;;2612510;54;20137;-78
2023/12/30 11:47:46;;;;;;;7.93;3.03;;;9.90;1.00;;;;;;2613645;54;21015;-77
2023/12/30 11:53:37;;;;;;;18.00;4.23;;;9.90;1.00;;;;;;2612193;54;20172;-77
2023/12/30 11:59:25;;;;;;;9.20;5.33;;;10.10;1.00;;;;;;2614179;54;20377;-76
2023/12/30 12:05:13;;;;;;;12.53;3.33;;;10.10;1.00;;;;;;2614142;54;20125;-77
2023/12/30 12:11:01;;;;;;;5.10;3.07;;;10.20;1.00;;;;;;2615170;54;20136;-77
2023/12/30 12:16:50;;;;;;;9.93;3.23;;;10.20;1.00;;;;;;2615166;54;20127;-78
2023/12/30 12:22:38;;;;;;;3.57;2.10;;;10.20;1.00;;;;;;2614415;54;20422;-77
2023/12/30 12:28:26;;;;;;;12.00;3.47;;;10.40;1.00;;;;;;2615757;54;20410;-77
2023/12/30 12:38:13;;;;;;;5.50;2.70;;;10.50;1.00;;;;;;2615187;54;20394;-76
2023/12/30 12:44:00;;;;;;;15.77;3.80;;;10.70;1.00;;;;;;2615287;54;20382;-77
2023/12/30 12:49:48;;;;;;;12.20;4.00;;;11.10;1.00;;;;;;2615161;39;20567;-76
2023/12/30 12:55:36;;;;;;;9.10;3.90;;;11.30;1.00;;;;;;2615138;54;20214;-76
2023/12/30 13:01:24;;;;;;;6.73;2.90;;;10.90;1.00;;;;;;2615150;54;20407;-77
2023/12/30 13:07:12;;;;;;;8.20;3.27;;;10.90;1.00;;;;;;2615183;54;20125;-76
2023/12/30 13:12:59;;;;;;;8.53;3.33;;;10.80;1.00;;;;;;2615417;54;20155;-78
2023/12/30 13:18:50;;;;;;;14.90;4.23;;;10.80;1.00;;;;;;2614895;54;20656;-77
2023/12/30 13:24:38;;;;;;;6.53;2.73;;;10.80;1.00;;;;;;2615719;39;20738;-76
2023/12/30 13:30:27;;;;;;;2.60;2.10;;;11.60;1.00;;;;;;2615428;54;20431;-76
2023/12/30 13:33:45;;;;;;;39.77;3.17;;;10.90;1.00;;;;;;2614437;54;20495;-78
2023/12/30 13:36:11;;;;;;;5.87;3.83;;;11.10;1.00;;;;;;2614643;54;20395;-78
2023/12/30 13:42:03;;;;;;;4.93;2.93;;;11.20;1.00;;;;;;2615176;54;20424;-77
2023/12/30 13:48:24;;;;;;;12.07;4.13;;;10.90;1.00;;;;;;2614418;54;20398;-77
2023/12/30 13:54:00;;;;;;;10.57;4.20;;;11.80;1.00;;;;;;2615579;54;20419;-78
2023/12/30 13:59:48;;;;;;;11.40;4.57;;;11.10;1.00;;;;;;2614356;54;20146;-72
2023/12/30 14:05:40;;;;;;;12.73;2.50;;;11.50;1.00;;;;;;2615034;54;20134;-79
2023/12/30 14:11:43;;;;;;;6.77;3.33;;;11.20;1.00;;;;;;2614959;54;20432;-77
2023/12/30 14:17:34;;;;;;;7.90;3.20;;;11.10;1.00;;;;;;2614804;46;20494;-75
2023/12/30 14:23:22;;;;;;;5.43;2.40;;;10.80;1.00;;;;;;2615066;54;20442;-77
2023/12/30 14:29:10;;;;;;;8.70;2.80;;;10.70;1.00;;;;;;2614683;54;20970;-76
2023/12/30 14:38:20;;;;;;;8.03;5.40;;;10.60;1.00;;;;;;2614648;39;20754;-79
2023/12/30 14:44:08;;;;;;;10.60;2.90;;;10.50;1.00;;;;;;2614805;54;20225;-77
2023/12/30 14:49:55;;;;;;;8.07;4.00;;;10.40;1.00;;;;;;2614881;54;20208;-77
2023/12/30 14:55:43;;;;;;;6.27;2.60;;;10.30;1.00;;;;;;2614406;54;20326;-73
2023/12/30 15:01:32;;;;;;;5.83;3.00;;;10.20;1.00;;;;;;2614933;39;20892;-73
2023/12/30 15:07:20;;;;;;;13.37;3.17;;;10.00;1.00;;;;;;2614629;39;20844;-73
2023/12/30 15:13:08;;;;;;;3.73;2.30;;;9.90;1.00;;;;;;2614321;54;20402;-72
2023/12/30 15:18:56;;;;;;;6.33;3.10;;;9.70;1.00;;;;;;2614562;54;20187;-72
2023/12/30 15:21:59;;;;;;;7.23;3.20;;;9.60;1.00;;;;;;2614418;54;20416;-72
2023/12/30 15:24:25;;;;;;;13.30;7.57;;;9.30;1.00;;;;;;2614615;54;21022;-74
2023/12/30 15:30:13;;;;;;;5.70;2.70;;;9.20;1.00;;;;;;2613718;54;20486;-73
2023/12/30 15:39:23;;;;;;;7.70;3.80;;;9.20;1.00;;;;;;2615014;54;20487;-73
2023/12/30 15:45:11;;;;;;;14.17;3.57;;;9.10;1.00;;;;;;2615494;54;20131;-75
2023/12/30 15:50:58;;;;;;;6.23;3.13;;;9.10;1.00;;;;;;2615609;54;20633;-74
2023/12/30 15:56:47;;;;;;;4.93;2.87;;;9.20;1.00;;;;;;2615115;54;20165;-74
2023/12/30 16:02:34;;;;;;;5.10;2.90;;;9.20;1.00;;;;;;2615502;54;20435;-75
2023/12/30 16:08:22;;;;;;;8.00;4.10;;;9.20;1.00;;;;;;2614744;54;20134;-79
2023/12/30 16:14:10;;;;;;;7.23;3.27;;;9.30;1.00;;;;;;2615243;54;20237;-80
2023/12/30 16:19:58;;;;;;;7.90;2.83;;;9.30;1.00;;;;;;2615125;54;20380;-73
2023/12/30 16:25:45;;;;;;;5.10;2.60;;;9.10;1.00;;;;;;2615275;54;20409;-74
2023/12/30 16:31:33;;;;;;;5.83;3.00;;;9.20;1.00;;;;;;2615180;54;20678;-74
2023/12/30 16:34:47;;;;;;;8.00;3.03;;;9.20;1.00;;;;;;2614682;54;20400;-74
2023/12/30 16:37:15;;;;;;;7.37;4.80;;;9.20;1.00;;;;;;2614525;54;20177;-74
2023/12/30 16:43:03;;;;;;;18.10;3.33;;;9.30;1.00;;;;;;2615809;54;20419;-75
2023/12/30 16:48:51;;;;;;;6.20;3.60;;;9.00;1.00;;;;;;2615379;39;20515;-74
2023/12/30 16:54:39;;;;;;;9.20;4.40;;;9.20;1.00;;;;;;2615109;54;20358;-72
2023/12/30 17:00:26;;;;;;;7.57;3.50;;;9.20;1.00;;;;;;2614893;54;20710;-73
2023/12/30 17:06:14;;;;;;;9.73;2.90;;;9.10;1.00;;;;;;2615139;54;20131;-72
2023/12/30 17:12:02;;;;;;;4.30;2.60;;;9.30;1.00;;;;;;2615424;54;20625;-74
2023/12/30 17:17:50;;;;;;;5.53;3.57;;;9.30;1.00;;;;;;2614823;39;20851;-72
2023/12/30 17:23:37;;;;;;;6.17;4.13;;;9.30;1.00;;;;;;2614848;54;20135;-73
2023/12/30 17:29:26;;;;;;;4.50;3.47;;;9.40;1.00;;;;;;2614535;54;20394;-72
2023/12/30 17:39:16;;;;;;;9.40;3.20;;;9.60;1.00;;;;;;2614909;54;20914;-75
2023/12/30 17:45:05;;;;;;;4.17;3.00;;;9.80;1.00;;;;;;2615051;54;20382;-75
2023/12/30 17:50:53;;;;;;;3.63;2.53;;;9.80;1.00;;;;;;2614764;54;20434;-80
2023/12/30 17:56:41;;;;;;;3.33;2.73;;;9.70;1.00;;;;;;2614895;54;20930;-79
2023/12/30 18:02:29;;;;;;;4.63;2.70;;;9.60;1.00;;;;;;2614819;54;20752;-79
2023/12/30 18:08:17;;;;;;;3.60;2.53;;;9.50;1.00;;;;;;2614523;54;20130;-79
2023/12/30 18:14:08;;;;;;;2.70;2.20;;;9.50;1.00;;;;;;2614981;54;20727;-79
2023/12/30 18:19:58;;;;;;;5.53;2.33;;;9.40;1.00;;;;;;2614819;54;20345;-78
2023/12/30 18:25:45;;;;;;;5.90;2.33;;;9.10;1.00;;;;;;2614803;54;20419;-78
2023/12/30 18:31:33;;;;;;;5.93;2.13;;;9.30;1.00;;;;;;2614797;54;20203;-77
2023/12/30 18:34:47;;;;;;;2.93;2.20;;;9.20;1.00;;;;;;2614980;54;20423;-79
2023/12/30 18:37:14;;;;;;;5.60;2.33;;;9.30;1.00;;;;;;2613963;54;20685;-75
2023/12/30 18:43:01;;;;;;;3.53;2.70;;;9.50;1.00;;;;;;2615103;54;20472;-73
2023/12/30 18:48:49;;;;;;;6.33;2.43;;;9.60;1.00;;;;;;2614247;54;20135;-74
2023/12/30 18:54:37;;;;;;;3.50;2.47;;;9.60;1.00;;;;;;2614582;54;20134;-74
2023/12/30 19:00:25;;;;;;;3.43;2.33;;;9.50;1.00;;;;;;2614364;54;20155;-75
2023/12/30 19:06:13;;;;;;;4.50;3.20;;;9.50;1.00;;;;;;2614588;54;20459;-74
2023/12/30 19:12:00;;;;;;;5.23;2.40;;;9.40;1.00;;;;;;2614576;54;20152;-75
2023/12/30 19:17:48;;;;;;;11.23;2.87;;;9.40;1.00;;;;;;2615026;54;20149;-74
2023/12/30 19:23:36;;;;;;;3.00;2.30;;;9.30;1.00;;;;;;2615456;54;20130;-76
2023/12/30 19:29:24;;;;;;;5.20;2.30;;;9.50;1.00;;;;;;2615378;54;20242;-74
2023/12/30 19:39:17;;;;;;;2.83;2.57;;;9.40;1.00;;;;;;2615234;54;20924;-75
2023/12/30 19:45:06;;;;;;;4.70;2.10;;;9.30;1.00;;;;;;2615387;54;20378;-73
2023/12/30 19:50:53;;;;;;;2.23;1.90;;;9.30;1.00;;;;;;2615207;54;20464;-79
2023/12/30 19:56:40;;;;;;;2.87;2.20;;;9.50;1.00;;;;;;2615537;54;20672;-80
2023/12/30 20:02:28;;;;;;;3.23;2.30;;;9.30;1.00;;;;;;2615331;39;20617;-74
2023/12/30 20:08:17;;;;;;;3.03;1.97;;;9.30;1.00;;;;;;2614699;54;20238;-72
2023/12/30 20:14:04;;;;;;;2.40;2.13;;;9.20;1.00;;;;;;2615031;54;20383;-72
2023/12/30 20:19:52;;;;;;;2.83;1.90;;;9.20;1.00;;;;;;2615248;54;20653;-77
2023/12/30 20:25:40;;;;;;;4.20;2.80;;;9.10;1.00;;;;;;2615451;54;20122;-72
2023/12/30 20:31:29;;;;;;;2.90;1.90;;;9.30;1.00;;;;;;2615538;54;20135;-73
2023/12/30 20:34:48;;;;;;;7.30;2.20;;;9.20;1.00;;;;;;2614238;54;20382;-73
2023/12/30 20:37:17;;;;;;;2.50;1.83;;;9.10;1.00;;;;;;2614703;54;20419;-73
2023/12/30 20:40:20;;;;;;;3.00;2.00;;;9.20;1.00;;;;;;2614941;54;20491;-72
2023/12/30 20:42:45;;;;;;;2.53;2.20;;;9.20;1.00;;;;;;2614873;54;21008;-74
2023/12/30 20:48:33;;;;;;;4.63;2.60;;;9.10;1.00;;;;;;2614776;54;20664;-73
2023/12/30 20:54:21;;;;;;;5.60;2.60;;;9.20;1.00;;;;;;2614852;54;20135;-73
2023/12/30 21:00:10;;;;;;;2.60;2.40;;;9.00;1.00;;;;;;2614913;54;20114;-75
2023/12/30 21:05:58;;;;;;;2.57;1.60;;;8.90;1.00;;;;;;2614926;54;20919;-74
2023/12/30 21:11:45;;;;;;;2.80;2.10;;;8.80;1.00;;;;;;2615040;54;20136;-75
2023/12/30 21:17:33;;;;;;;2.90;2.40;;;9.00;1.00;;;;;;2615002;39;20544;-75
2023/12/30 21:23:21;;;;;;;2.30;1.93;;;9.10;1.00;;;;;;2614729;54;20149;-74
2023/12/30 21:29:09;;;;;;;10.30;1.80;;;9.10;1.00;;;;;;2614954;54;20142;-78
2023/12/30 21:41:41;;;;;;;1.80;1.50;;;9.40;1.00;;;;;;2615052;54;20382;-78
2023/12/30 21:47:30;;;;;;;1.53;1.43;;;9.40;1.00;;;;;;2614861;54;20984;-79
2023/12/30 21:53:18;;;;;;;2.80;1.63;;;9.50;1.00;;;;;;2614897;54;20406;-78
2023/12/30 21:59:06;;;;;;;1.80;1.40;;;9.40;1.00;;;;;;2615531;54;20133;-78
2023/12/30 22:04:53;;;;;;;2.63;1.70;;;9.40;1.00;;;;;;2615070;54;20250;-79
2023/12/30 22:10:41;;;;;;;5.83;1.60;;;9.50;1.00;;;;;;2615143;54;20198;-78
2023/12/30 22:16:29;;;;;;;1.53;1.43;;;9.60;1.00;;;;;;2614666;54;20143;-77
2023/12/30 22:22:17;;;;;;;2.20;1.87;;;9.50;1.00;;;;;;2614726;54;20134;-79
2023/12/30 22:28:04;;;;;;;1.53;1.27;;;9.30;1.00;;;;;;2614615;54;20148;-77
2023/12/30 22:33:52;;;;;;;1.50;1.30;;;9.20;1.00;;;;;;2614842;54;20399;-78
2023/12/30 22:39:40;;;;;;;2.47;1.90;;;9.10;1.00;;;;;;2614641;54;20125;-78
2023/12/30 22:45:28;;;;;;;1.87;1.67;;;9.20;1.00;;;;;;2614570;54;20203;-78
2023/12/30 22:51:16;;;;;;;1.87;1.50;;;9.30;1.00;;;;;;2614314;54;20125;-78
2023/12/30 22:57:08;;;;;;;2.17;1.50;;;9.40;1.00;;;;;;2614686;54;20230;-78
2023/12/30 23:02:56;;;;;;;1.93;1.70;;;9.30;1.00;;;;;;2614521;54;20366;-78
2023/12/30 23:08:44;;;;;;;2.80;1.70;;;9.40;1.00;;;;;;2614354;54;21132;-78
2023/12/30 23:14:31;;;;;;;2.13;1.47;;;9.30;1.00;;;;;;2614863;54;20191;-80
2023/12/30 23:20:21;;;;;;;1.40;1.23;;;9.20;1.00;;;;;;2614777;54;20225;-74
2023/12/30 23:26:09;;;;;;;1.80;1.57;;;9.10;1.00;;;;;;2615129;39;20780;-73
2023/12/30 23:31:57;;;;;;;1.90;1.33;;;9.00;1.00;;;;;;2614952;39;20749;-75
2023/12/30 23:37:53;;;;;;;2.00;1.33;;;9.00;1.00;;;;;;2612527;54;20187;-73
2023/12/30 23:43:40;;;;;;;2.00;1.37;;;9.00;1.00;;;;;;2612932;54;20224;-75
2023/12/30 23:49:27;;;;;;;4.20;1.70;;;9.00;1.00;;;;;;2613013;46;20150;-73
2023/12/30 23:55:14;;;;;;;1.80;1.60;;;8.90;1.00;;;;;;2612645;54;21001;-75
